Time;durP1;ratioP1;P1;durP2;ratioP2;P2;SDS_P1;SDS_P2;PMS_P1;PMS_P2;Temp;Humidity;BMP_temperature;BMP_pressure;BME280_temperature;BME280_humidity;BME280_pressure;Samples;Min_cycle;Max_cycle;Signal;HPM_P1;HPM_P2
2021/12/10 00:00:46;;;;;;;70.00;37.23;;;4.20;99.90;;;;;;637677;225;26564;-81
2021/12/10 00:03:16;;;;;;;74.30;38.43;;;4.20;99.90;;;;;;637276;226;26599;-81
2021/12/10 00:05:44;;;;;;;81.80;40.07;;;4.20;99.90;;;;;;637209;226;26582;-82
2021/12/10 00:08:11;;;;;;;70.20;39.00;;;4.20;99.90;;;;;;636805;226;26532;-83
2021/12/10 00:10:38;;;;;;;73.63;38.10;;;4.10;99.90;;;;;;637112;226;26925;-82
2021/12/10 00:13:06;;;;;;;72.40;37.73;;;4.10;99.90;;;;;;636900;226;26548;-83
2021/12/10 00:15:33;;;;;;;73.23;39.43;;;4.00;99.90;;;;;;636948;226;26818;-83
2021/12/10 00:18:00;;;;;;;71.37;38.50;;;4.00;99.90;;;;;;636810;226;26744;-83
2021/12/10 00:20:27;;;;;;;82.60;40.70;;;4.00;99.90;;;;;;636733;226;27304;-82
2021/12/10 00:22:56;;;;;;;81.80;39.33;;;4.00;99.90;;;;;;636758;226;26850;-82
2021/12/10 00:25:22;;;;;;;72.97;38.20;;;3.90;99.90;;;;;;636567;226;26874;-82
2021/12/10 00:27:49;;;;;;;83.07;42.27;;;3.90;99.90;;;;;;636283;226;26583;-82
2021/12/10 00:30:18;;;;;;;76.70;40.23;;;3.80;99.90;;;;;;636724;226;26857;-82
2021/12/10 00:32:45;;;;;;;84.93;40.33;;;3.90;99.90;;;;;;636336;226;26821;-82
2021/12/10 00:35:16;;;;;;;73.33;39.83;;;3.90;99.90;;;;;;636336;226;26586;-82
2021/12/10 00:37:44;;;;;;;77.83;41.30;;;3.80;99.90;;;;;;636375;226;26535;-82
2021/12/10 00:40:11;;;;;;;71.67;40.30;;;3.80;99.90;;;;;;636577;226;26893;-83
2021/12/10 00:42:38;;;;;;;81.23;41.07;;;3.80;99.90;;;;;;636605;226;26559;-82
2021/12/10 00:45:06;;;;;;;83.67;41.83;;;3.60;99.90;;;;;;636613;226;26785;-82
2021/12/10 00:47:33;;;;;;;86.67;41.87;;;3.60;99.90;;;;;;636534;226;26596;-82
2021/12/10 00:50:00;;;;;;;90.30;43.07;;;3.50;99.90;;;;;;636584;226;26667;-82
2021/12/10 00:52:27;;;;;;;82.83;40.03;;;3.30;99.90;;;;;;636586;226;26604;-82
2021/12/10 00:54:55;;;;;;;74.37;39.17;;;3.40;99.90;;;;;;636521;226;26807;-82
2021/12/10 00:57:22;;;;;;;85.80;39.70;;;3.40;99.90;;;;;;636512;226;26582;-82
2021/12/10 00:59:49;;;;;;;79.00;41.50;;;3.40;99.90;;;;;;636369;226;26802;-82
2021/12/10 01:02:16;;;;;;;85.57;41.57;;;3.30;99.90;;;;;;636490;226;26543;-82
2021/12/10 01:04:43;;;;;;;77.77;40.50;;;3.50;99.90;;;;;;636382;226;26844;-82
2021/12/10 01:07:11;;;;;;;81.30;41.03;;;3.50;99.90;;;;;;636517;226;26544;-82
2021/12/10 01:09:38;;;;;;;77.43;40.77;;;3.70;99.90;;;;;;636776;223;26841;-83
2021/12/10 01:12:07;;;;;;;83.17;42.63;;;3.80;99.90;;;;;;637604;225;26575;-81
2021/12/10 01:14:52;;;;;;;82.23;40.87;;;3.90;99.90;;;;;;637142;226;26597;-82
2021/12/10 01:25:24;;;;;;;79.03;39.83;;;3.80;99.90;;;;;;637245;226;26561;-82
2021/12/10 01:27:30;;;;;;;86.23;41.67;;;3.70;99.90;;;;;;634230;226;26602;-82
2021/12/10 01:29:56;;;;;;;84.20;42.43;;;3.70;99.90;;;;;;636476;226;26610;-82
2021/12/10 01:32:20;;;;;;;81.30;42.60;;;3.80;99.90;;;;;;636685;226;26828;-82
2021/12/10 01:34:47;;;;;;;80.17;40.97;;;3.80;99.90;;;;;;636902;226;26563;-82
2021/12/10 01:37:14;;;;;;;85.07;42.03;;;3.90;99.90;;;;;;636907;226;26821;-82
2021/12/10 01:39:42;;;;;;;84.80;44.17;;;3.70;99.90;;;;;;636907;226;26576;-82
2021/12/10 01:44:44;;;;;;;82.43;42.00;;;3.50;99.90;;;;;;636774;226;26801;-82
2021/12/10 01:47:09;;;;;;;78.40;41.97;;;3.50;99.90;;;;;;636036;226;26587;-82
2021/12/10 01:49:36;;;;;;;82.53;41.63;;;3.60;99.90;;;;;;636636;226;26836;-81
2021/12/10 01:52:03;;;;;;;81.07;42.20;;;3.70;99.90;;;;;;636596;226;26559;-82
2021/12/10 01:54:31;;;;;;;80.37;40.63;;;3.60;99.90;;;;;;636655;226;26763;-82
2021/12/10 01:56:59;;;;;;;85.93;42.33;;;3.60;99.90;;;;;;636168;226;26511;-82
2021/12/10 01:59:26;;;;;;;80.93;42.33;;;3.80;99.90;;;;;;636565;222;26574;-82
2021/12/10 02:01:54;;;;;;;79.13;42.13;;;3.80;99.90;;;;;;636420;226;26885;-82
2021/12/10 02:04:22;;;;;;;86.07;41.50;;;3.90;99.90;;;;;;635131;226;26610;-82
2021/12/10 02:06:50;;;;;;;88.70;43.10;;;3.90;99.90;;;;;;636460;226;26612;-82
2021/12/10 02:09:17;;;;;;;87.40;43.40;;;3.90;99.90;;;;;;636377;226;26619;-82
2021/12/10 02:11:44;;;;;;;84.97;43.80;;;4.00;99.90;;;;;;636353;226;26602;-82
2021/12/10 02:14:12;;;;;;;84.00;43.23;;;4.00;99.90;;;;;;636333;226;26795;-82
2021/12/10 02:16:39;;;;;;;81.40;43.07;;;3.90;99.90;;;;;;636236;226;26591;-81
2021/12/10 02:19:06;;;;;;;87.70;43.87;;;4.00;99.90;;;;;;636308;226;26823;-82
2021/12/10 02:21:34;;;;;;;77.00;42.63;;;4.00;99.90;;;;;;638692;224;26575;-82
2021/12/10 02:24:00;;;;;;;85.87;43.60;;;4.00;99.90;;;;;;638111;223;26837;-81
2021/12/10 02:26:29;;;;;;;83.07;42.67;;;4.00;99.90;;;;;;637879;226;26564;-82
2021/12/10 02:28:56;;;;;;;88.20;43.67;;;4.00;99.90;;;;;;637378;222;26574;-83
2021/12/10 02:31:24;;;;;;;88.00;44.17;;;3.90;99.90;;;;;;637564;226;26578;-82
2021/12/10 02:33:52;;;;;;;85.03;43.73;;;4.00;99.90;;;;;;637590;226;26572;-82
2021/12/10 02:36:19;;;;;;;84.70;41.67;;;4.00;99.90;;;;;;637576;226;26507;-82
2021/12/10 02:38:46;;;;;;;90.37;43.83;;;4.10;99.90;;;;;;637251;226;26600;-82
2021/12/10 02:41:13;;;;;;;83.67;43.10;;;4.10;99.90;;;;;;636840;226;26803;-82
2021/12/10 02:43:40;;;;;;;88.40;43.87;;;4.20;99.90;;;;;;636772;226;26587;-82
2021/12/10 02:46:08;;;;;;;85.37;42.30;;;4.10;99.90;;;;;;636886;222;26925;-82
2021/12/10 02:48:35;;;;;;;88.13;42.43;;;4.00;99.90;;;;;;636870;226;26608;-81
2021/12/10 02:51:02;;;;;;;88.53;44.17;;;3.70;99.90;;;;;;636986;226;26814;-82
2021/12/10 02:53:34;;;;;;;84.10;41.83;;;3.80;99.90;;;;;;636963;226;26556;-82
2021/12/10 02:55:56;;;;;;;85.87;41.30;;;3.90;99.90;;;;;;636428;226;26864;-82
2021/12/10 02:58:24;;;;;;;86.87;43.67;;;4.00;99.90;;;;;;636549;226;26583;-82
2021/12/10 03:00:52;;;;;;;84.17;42.57;;;4.10;99.90;;;;;;636622;226;26795;-82
2021/12/10 03:03:20;;;;;;;83.20;42.33;;;4.00;99.90;;;;;;636413;226;26804;-81
2021/12/10 03:05:47;;;;;;;85.80;42.50;;;3.80;99.90;;;;;;636631;226;26587;-82
2021/12/10 03:08:14;;;;;;;80.97;42.93;;;3.50;99.90;;;;;;636592;222;26807;-82
2021/12/10 03:10:41;;;;;;;79.03;41.27;;;3.40;99.90;;;;;;636617;226;26540;-82
2021/12/10 03:13:08;;;;;;;88.33;41.43;;;3.50;99.90;;;;;;636546;226;27307;-81
2021/12/10 03:15:35;;;;;;;83.10;42.10;;;3.70;99.90;;;;;;636547;226;26555;-82
2021/12/10 03:18:03;;;;;;;76.67;39.83;;;3.50;99.90;;;;;;636490;226;26821;-82
2021/12/10 03:20:31;;;;;;;85.90;42.13;;;3.70;99.90;;;;;;636649;226;26611;-82
2021/12/10 03:22:58;;;;;;;82.77;41.00;;;3.60;99.90;;;;;;636922;226;26555;-82
2021/12/10 03:25:25;;;;;;;85.97;42.90;;;3.80;99.90;;;;;;636888;226;26525;-82
2021/12/10 03:27:53;;;;;;;86.27;44.53;;;3.80;99.90;;;;;;636930;226;26511;-82
2021/12/10 03:30:21;;;;;;;85.10;43.73;;;3.70;99.90;;;;;;636918;226;26607;-82
2021/12/10 03:32:48;;;;;;;78.13;42.47;;;3.60;99.90;;;;;;638327;224;26568;-82
2021/12/10 03:35:26;;;;;;;83.70;41.97;;;3.70;99.90;;;;;;638239;225;26553;-82
2021/12/10 03:37:52;;;;;;;88.57;45.57;;;3.80;99.90;;;;;;637393;226;26821;-82
2021/12/10 03:40:19;;;;;;;87.00;44.07;;;3.90;99.90;;;;;;637379;226;26612;-81
2021/12/10 03:42:47;;;;;;;86.90;42.80;;;4.00;99.90;;;;;;637121;226;26807;-82
2021/12/10 03:45:13;;;;;;;87.73;44.57;;;4.00;99.90;;;;;;637172;226;26769;-81
2021/12/10 03:47:41;;;;;;;86.73;41.40;;;4.10;99.90;;;;;;637073;226;26904;-82
2021/12/10 03:50:08;;;;;;;84.43;43.30;;;4.10;99.90;;;;;;636846;226;26627;-82
2021/12/10 03:52:35;;;;;;;86.77;43.27;;;4.10;99.90;;;;;;636716;226;27290;-82
2021/12/10 03:55:03;;;;;;;79.93;41.50;;;4.10;99.90;;;;;;636870;226;26595;-81
2021/12/10 03:57:30;;;;;;;84.00;41.13;;;4.20;99.90;;;;;;636790;226;26834;-82
2021/12/10 03:59:57;;;;;;;72.23;38.47;;;4.10;99.90;;;;;;636778;226;26572;-82
2021/12/10 04:02:24;;;;;;;81.00;42.80;;;3.90;99.90;;;;;;636881;226;26602;-81
2021/12/10 04:04:52;;;;;;;84.50;43.27;;;3.90;99.90;;;;;;636862;226;26554;-82
2021/12/10 04:07:21;;;;;;;82.60;42.00;;;3.70;99.90;;;;;;636811;226;26592;-82
2021/12/10 04:09:48;;;;;;;84.67;43.27;;;3.70;99.90;;;;;;636293;226;26563;-82
2021/12/10 04:12:15;;;;;;;88.53;44.33;;;3.70;99.90;;;;;;636592;226;26783;-82
2021/12/10 04:14:42;;;;;;;86.53;43.77;;;3.70;99.90;;;;;;636483;226;26547;-82
2021/12/10 04:17:09;;;;;;;84.87;43.00;;;3.70;99.90;;;;;;636600;226;26768;-82
2021/12/10 04:19:37;;;;;;;85.47;42.07;;;3.80;99.90;;;;;;636453;226;26605;-81
2021/12/10 04:22:04;;;;;;;78.30;41.67;;;3.90;99.90;;;;;;636422;224;26778;-82
2021/12/10 04:24:31;;;;;;;80.43;42.10;;;3.90;99.90;;;;;;636531;226;26547;-81
2021/12/10 04:26:58;;;;;;;84.30;41.80;;;3.90;99.90;;;;;;636453;226;27213;-82
2021/12/10 04:29:25;;;;;;;84.70;42.67;;;4.00;99.90;;;;;;636506;226;26567;-82
2021/12/10 04:31:53;;;;;;;81.47;41.17;;;4.10;99.90;;;;;;636491;226;26825;-82
2021/12/10 04:34:21;;;;;;;89.00;43.60;;;4.00;99.90;;;;;;636459;226;26543;-82
2021/12/10 04:36:49;;;;;;;87.20;41.40;;;3.90;99.90;;;;;;636498;226;26547;-82
2021/12/10 04:39:16;;;;;;;78.53;40.00;;;3.90;99.90;;;;;;636471;226;26596;-81
2021/12/10 04:41:44;;;;;;;83.90;41.23;;;3.90;99.90;;;;;;636650;226;26615;-81
2021/12/10 04:44:12;;;;;;;82.03;41.73;;;3.90;99.90;;;;;;638058;224;26588;-82
2021/12/10 04:46:40;;;;;;;94.30;44.33;;;3.80;99.90;;;;;;637841;225;26592;-81
2021/12/10 04:49:08;;;;;;;84.10;43.23;;;3.80;99.90;;;;;;637439;225;26610;-83
2021/12/10 04:51:36;;;;;;;86.20;43.17;;;3.70;99.90;;;;;;637382;226;26613;-82
2021/12/10 04:54:04;;;;;;;86.60;45.40;;;3.50;99.90;;;;;;636978;226;26544;-82
2021/12/10 04:56:32;;;;;;;89.23;43.67;;;3.60;99.90;;;;;;637157;226;26544;-83
2021/12/10 04:58:59;;;;;;;85.90;43.47;;;3.60;99.90;;;;;;637115;226;26584;-82
2021/12/10 05:01:27;;;;;;;88.50;43.83;;;3.60;99.90;;;;;;636927;226;26632;-83
2021/12/10 05:03:54;;;;;;;90.80;44.50;;;3.70;99.90;;;;;;636825;226;26833;-83
2021/12/10 05:06:21;;;;;;;89.60;42.77;;;3.60;99.90;;;;;;636951;226;26575;-82
2021/12/10 05:08:48;;;;;;;93.40;42.93;;;3.80;99.90;;;;;;636874;226;26863;-83
2021/12/10 05:11:15;;;;;;;92.73;46.13;;;4.00;99.90;;;;;;636953;226;26595;-82
2021/12/10 05:13:43;;;;;;;87.20;45.43;;;3.70;99.90;;;;;;636905;226;26809;-82
2021/12/10 05:16:10;;;;;;;87.27;43.47;;;3.50;99.90;;;;;;636863;226;26594;-83
2021/12/10 05:18:39;;;;;;;92.10;45.30;;;3.60;99.90;;;;;;636813;226;26793;-83
2021/12/10 05:21:04;;;;;;;100.67;45.67;;;3.80;99.90;;;;;;636413;226;26551;-82
2021/12/10 05:23:31;;;;;;;89.87;44.53;;;3.90;99.90;;;;;;636374;226;26818;-83
2021/12/10 05:25:59;;;;;;;93.67;45.63;;;3.90;99.90;;;;;;636477;226;26578;-82
2021/12/10 05:28:27;;;;;;;90.50;45.83;;;3.90;99.90;;;;;;636400;226;26572;-82
2021/12/10 05:30:55;;;;;;;96.77;45.57;;;3.90;99.90;;;;;;636336;226;26515;-82
2021/12/10 05:33:22;;;;;;;88.73;43.90;;;3.90;99.90;;;;;;636281;226;26565;-82
2021/12/10 05:35:50;;;;;;;90.77;42.87;;;3.80;99.90;;;;;;636369;226;26591;-82
2021/12/10 05:38:17;;;;;;;78.53;40.50;;;3.80;99.90;;;;;;636301;226;26558;-82
2021/12/10 05:40:44;;;;;;;90.10;44.87;;;3.90;99.90;;;;;;636496;222;26501;-83
2021/12/10 05:43:11;;;;;;;95.00;45.73;;;4.00;99.90;;;;;;636490;226;26796;-83
2021/12/10 05:45:38;;;;;;;78.00;42.07;;;4.00;99.90;;;;;;636545;226;26547;-83
2021/12/10 05:48:06;;;;;;;87.17;43.93;;;4.00;99.90;;;;;;636477;226;26796;-83
2021/12/10 05:50:33;;;;;;;92.93;44.23;;;3.90;99.90;;;;;;636460;226;26599;-83
2021/12/10 05:53:00;;;;;;;83.37;43.67;;;3.80;99.90;;;;;;636440;226;26827;-83
2021/12/10 05:55:27;;;;;;;87.27;42.97;;;3.90;99.90;;;;;;637696;224;26594;-83
2021/12/10 05:57:54;;;;;;;88.20;44.93;;;4.00;99.90;;;;;;637845;225;27067;-83
2021/12/10 06:00:22;;;;;;;85.33;44.30;;;4.20;99.90;;;;;;637524;225;26598;-83
2021/12/10 06:02:50;;;;;;;81.80;43.93;;;4.30;99.90;;;;;;637235;226;26582;-83
2021/12/10 06:05:17;;;;;;;92.70;46.00;;;4.30;99.90;;;;;;637130;226;27120;-83
2021/12/10 06:07:44;;;;;;;90.43;44.83;;;4.20;99.90;;;;;;637087;226;26549;-83
2021/12/10 06:10:11;;;;;;;90.40;45.27;;;4.20;99.90;;;;;;637112;222;26870;-83
2021/12/10 06:12:38;;;;;;;88.13;43.70;;;4.00;99.90;;;;;;636924;226;26579;-83
2021/12/10 06:15:06;;;;;;;96.27;46.07;;;4.00;99.90;;;;;;636750;226;26856;-83
2021/12/10 06:17:33;;;;;;;102.77;47.00;;;4.00;99.90;;;;;;636758;224;26827;-83
2021/12/10 06:20:00;;;;;;;89.30;45.00;;;4.10;99.90;;;;;;636852;226;26829;-83
2021/12/10 06:22:28;;;;;;;94.27;47.17;;;4.10;99.90;;;;;;636918;226;26582;-83
2021/12/10 06:24:55;;;;;;;92.07;45.43;;;4.10;99.90;;;;;;636945;226;26630;-83
2021/12/10 06:27:23;;;;;;;93.87;46.53;;;4.20;99.90;;;;;;636951;226;26594;-83
2021/12/10 06:29:51;;;;;;;94.67;45.50;;;4.20;99.90;;;;;;636869;226;26643;-83
2021/12/10 06:32:19;;;;;;;96.17;47.37;;;4.20;99.90;;;;;;636657;226;26555;-83
2021/12/10 06:34:47;;;;;;;98.07;45.80;;;4.20;99.90;;;;;;636607;226;26542;-83
2021/12/10 06:37:14;;;;;;;103.43;47.37;;;4.20;99.90;;;;;;636588;226;26570;-83
2021/12/10 06:39:41;;;;;;;105.43;49.70;;;4.10;99.90;;;;;;636845;226;26568;-83
2021/12/10 06:42:08;;;;;;;109.17;49.23;;;4.10;99.90;;;;;;636597;226;26539;-82
2021/12/10 06:44:36;;;;;;;97.60;47.37;;;4.20;99.90;;;;;;636512;226;26510;-84
2021/12/10 06:47:05;;;;;;;97.03;47.60;;;4.20;99.90;;;;;;636514;226;26507;-83
2021/12/10 06:49:31;;;;;;;104.53;46.93;;;4.30;99.90;;;;;;636404;226;26856;-84
2021/12/10 06:52:00;;;;;;;99.67;47.00;;;4.20;99.90;;;;;;636461;226;26592;-83
2021/12/10 06:54:25;;;;;;;94.63;46.43;;;4.30;99.90;;;;;;636346;226;27198;-83
2021/12/10 06:56:53;;;;;;;106.43;49.17;;;4.20;99.90;;;;;;636470;226;26598;-84
2021/12/10 06:59:21;;;;;;;103.57;47.10;;;4.20;99.90;;;;;;636364;226;26942;-83
2021/12/10 07:01:47;;;;;;;104.87;49.80;;;4.20;99.90;;;;;;636428;226;26598;-83
2021/12/10 07:04:14;;;;;;;98.30;48.20;;;4.20;99.90;;;;;;636488;226;26796;-84
2021/12/10 07:06:41;;;;;;;95.60;48.53;;;4.20;99.90;;;;;;637870;223;26570;-84
2021/12/10 07:09:08;;;;;;;100.63;48.80;;;4.10;99.90;;;;;;638220;223;26778;-86
2021/12/10 07:11:35;;;;;;;91.23;45.83;;;4.10;99.90;;;;;;637679;225;26515;-86
2021/12/10 07:14:03;;;;;;;101.23;46.17;;;4.00;99.90;;;;;;637606;226;26820;-82
2021/12/10 07:16:30;;;;;;;94.13;44.97;;;4.10;99.90;;;;;;637157;226;26864;-82
2021/12/10 07:18:57;;;;;;;95.77;45.93;;;4.10;99.90;;;;;;636876;226;26844;-82
2021/12/10 07:21:26;;;;;;;107.43;50.60;;;4.10;99.90;;;;;;636916;226;26556;-82
2021/12/10 07:23:51;;;;;;;93.73;47.40;;;4.20;99.90;;;;;;636988;226;26839;-83
2021/12/10 07:26:19;;;;;;;97.10;49.30;;;4.30;99.90;;;;;;636873;226;26616;-82
2021/12/10 07:28:47;;;;;;;100.60;49.47;;;4.20;99.90;;;;;;636781;226;26828;-82
2021/12/10 07:31:15;;;;;;;103.47;48.77;;;4.20;99.90;;;;;;636825;226;26592;-82
2021/12/10 07:33:43;;;;;;;113.23;50.20;;;4.00;99.90;;;;;;636817;226;26617;-80
2021/12/10 07:36:12;;;;;;;107.00;52.43;;;4.00;99.90;;;;;;636841;226;26599;-79
2021/12/10 07:38:39;;;;;;;96.73;48.93;;;4.00;99.90;;;;;;636761;226;26573;-80
2021/12/10 07:41:07;;;;;;;108.43;51.57;;;4.20;99.90;;;;;;636920;226;26568;-80
2021/12/10 07:43:35;;;;;;;96.80;50.10;;;4.10;99.90;;;;;;636581;226;26555;-83
2021/12/10 07:46:04;;;;;;;103.07;50.83;;;4.10;99.90;;;;;;636474;226;26562;-78
2021/12/10 07:48:30;;;;;;;110.17;50.47;;;4.20;99.90;;;;;;636409;226;26564;-78
2021/12/10 07:50:58;;;;;;;113.33;50.37;;;4.30;99.90;;;;;;636352;226;26531;-79
2021/12/10 07:53:25;;;;;;;96.53;49.90;;;4.30;99.90;;;;;;636598;226;26567;-79
2021/12/10 07:55:55;;;;;;;105.73;50.47;;;4.10;99.90;;;;;;636208;226;26547;-82
2021/12/10 07:58:21;;;;;;;115.60;51.17;;;4.10;99.90;;;;;;636412;226;26544;-82
2021/12/10 08:00:48;;;;;;;105.97;51.90;;;4.30;99.90;;;;;;636582;226;26539;-82
2021/12/10 08:03:16;;;;;;;101.80;49.47;;;4.40;99.90;;;;;;636573;226;26510;-82
2021/12/10 08:05:44;;;;;;;98.60;48.50;;;4.50;99.90;;;;;;636497;226;26523;-83
2021/12/10 08:08:12;;;;;;;108.50;50.70;;;4.60;99.90;;;;;;636535;226;26562;-83
2021/12/10 08:10:40;;;;;;;99.13;48.87;;;4.70;99.90;;;;;;634803;226;26595;-83
2021/12/10 08:13:08;;;;;;;93.90;48.20;;;4.80;99.90;;;;;;623654;230;26555;-82
2021/12/10 08:15:36;;;;;;;101.03;48.63;;;4.80;99.90;;;;;;628819;226;26546;-84
2021/12/10 08:18:03;;;;;;;89.97;46.93;;;4.90;99.90;;;;;;634310;224;26830;-84
2021/12/10 08:20:30;;;;;;;100.40;48.53;;;5.00;99.90;;;;;;630726;226;26555;-85
2021/12/10 08:22:57;;;;;;;99.90;48.73;;;5.00;99.90;;;;;;624866;230;26843;-85
2021/12/10 08:25:24;;;;;;;97.87;48.77;;;5.00;99.90;;;;;;624628;230;26624;-85
2021/12/10 08:27:52;;;;;;;96.97;49.33;;;5.00;99.90;;;;;;625047;230;27003;-85
2021/12/10 08:30:19;;;;;;;99.57;48.53;;;4.90;99.90;;;;;;624665;226;26595;-81
2021/12/10 08:32:47;;;;;;;94.30;46.50;;;4.70;99.90;;;;;;624392;227;27186;-84
2021/12/10 08:35:15;;;;;;;96.07;46.93;;;4.60;99.90;;;;;;624427;230;26608;-83
2021/12/10 08:37:43;;;;;;;95.57;48.37;;;4.70;99.90;;;;;;626369;226;26557;-80
2021/12/10 08:40:11;;;;;;;98.27;47.10;;;4.70;99.90;;;;;;636401;226;26608;-82
2021/12/10 08:42:38;;;;;;;97.43;46.83;;;4.90;99.90;;;;;;630657;226;26611;-82
2021/12/10 08:45:06;;;;;;;97.47;49.53;;;5.00;99.90;;;;;;631455;221;26569;-81
2021/12/10 08:47:34;;;;;;;92.40;47.90;;;5.10;99.90;;;;;;634958;226;26600;-83
2021/12/10 08:50:02;;;;;;;95.00;48.40;;;5.30;99.90;;;;;;624115;226;26582;-83
2021/12/10 08:52:29;;;;;;;92.57;45.87;;;5.30;99.90;;;;;;623944;230;26539;-83
2021/12/10 08:54:57;;;;;;;99.00;49.53;;;5.30;99.90;;;;;;630868;226;26596;-82
2021/12/10 08:57:24;;;;;;;97.17;47.67;;;5.30;99.90;;;;;;623884;230;26595;-83
2021/12/10 08:59:51;;;;;;;96.10;48.33;;;5.30;99.90;;;;;;623826;230;26622;-83
2021/12/10 09:02:19;;;;;;;93.27;47.53;;;5.20;99.90;;;;;;634291;226;26523;-82
2021/12/10 09:04:47;;;;;;;91.93;47.17;;;5.20;99.90;;;;;;623759;230;26583;-81
2021/12/10 09:07:15;;;;;;;86.67;47.63;;;5.30;99.90;;;;;;627073;226;26587;-80
2021/12/10 09:09:43;;;;;;;87.33;46.20;;;5.30;99.90;;;;;;629610;226;26625;-81
2021/12/10 09:12:12;;;;;;;91.63;45.97;;;5.20;99.90;;;;;;624699;226;26623;-82
2021/12/10 09:14:43;;;;;;;86.10;45.83;;;5.20;99.90;;;;;;624030;226;26599;-81
2021/12/10 09:17:05;;;;;;;91.43;48.10;;;5.10;99.90;;;;;;632415;226;26895;-82
2021/12/10 09:19:33;;;;;;;95.90;49.43;;;5.10;99.90;;;;;;631203;226;26584;-82
2021/12/10 09:22:00;;;;;;;100.80;48.57;;;5.20;99.90;;;;;;633119;226;26802;-82
2021/12/10 09:24:28;;;;;;;99.80;49.80;;;5.30;99.90;;;;;;632476;226;26557;-85
2021/12/10 09:26:56;;;;;;;93.23;47.53;;;5.50;99.90;;;;;;633110;226;26802;-82
2021/12/10 09:29:22;;;;;;;96.17;48.70;;;5.40;99.90;;;;;;628076;226;26602;-81
2021/12/10 09:31:50;;;;;;;96.07;48.07;;;5.50;99.90;;;;;;625708;230;26806;-85
2021/12/10 09:34:17;;;;;;;92.10;45.80;;;5.50;99.90;;;;;;634184;226;26568;-82
2021/12/10 09:36:45;;;;;;;87.53;46.20;;;5.40;99.90;;;;;;634960;226;26531;-83
2021/12/10 09:39:13;;;;;;;91.27;48.73;;;5.40;99.90;;;;;;634803;226;26641;-80
2021/12/10 09:41:41;;;;;;;85.00;46.57;;;5.40;99.90;;;;;;634466;226;26618;-79
2021/12/10 09:44:09;;;;;;;83.13;44.30;;;5.30;99.90;;;;;;634849;226;26544;-87
2021/12/10 09:46:36;;;;;;;91.73;48.00;;;5.30;99.90;;;;;;635960;225;26610;-84
2021/12/10 09:49:03;;;;;;;85.10;45.60;;;5.20;99.90;;;;;;628073;227;26802;-87
2021/12/10 09:51:30;;;;;;;91.13;47.60;;;5.30;99.90;;;;;;632346;226;26670;-87
2021/12/10 09:53:57;;;;;;;90.73;45.80;;;5.50;99.90;;;;;;636508;226;26863;-88
2021/12/10 09:56:24;;;;;;;84.63;44.93;;;5.70;99.90;;;;;;636857;226;26607;-87
2021/12/10 09:58:53;;;;;;;84.87;44.23;;;5.80;99.90;;;;;;636734;226;26885;-88
2021/12/10 10:01:21;;;;;;;84.47;45.47;;;5.80;99.90;;;;;;630846;226;26611;-87
2021/12/10 10:03:50;;;;;;;81.20;44.40;;;5.60;99.90;;;;;;624217;227;26525;-87
2021/12/10 10:06:19;;;;;;;99.17;45.90;;;5.60;99.90;;;;;;633091;227;26583;-86
2021/12/10 10:08:46;;;;;;;84.90;42.77;;;5.50;99.90;;;;;;628731;226;26854;-87
2021/12/10 10:11:14;;;;;;;87.33;45.93;;;5.40;99.90;;;;;;623867;226;26617;-87
2021/12/10 10:13:42;;;;;;;84.07;43.47;;;5.60;99.90;;;;;;623685;228;26850;-86
2021/12/10 10:16:11;;;;;;;90.33;45.23;;;5.70;99.90;;;;;;634526;226;26563;-89
2021/12/10 10:18:54;;;;;;;87.97;43.37;;;5.70;99.90;;;;;;636449;226;26890;-90
2021/12/10 10:21:23;;;;;;;87.73;43.13;;;5.80;99.90;;;;;;636066;226;26841;-85
2021/12/10 10:23:50;;;;;;;87.57;43.47;;;5.80;99.90;;;;;;636656;226;26559;-89
2021/12/10 10:26:19;;;;;;;93.00;45.10;;;5.80;99.90;;;;;;636496;226;26811;-88
2021/12/10 10:28:47;;;;;;;88.17;43.57;;;5.80;99.90;;;;;;636389;226;26559;-89
2021/12/10 10:31:17;;;;;;;85.17;42.87;;;5.80;99.90;;;;;;636659;222;26515;-89
2021/12/10 10:33:41;;;;;;;83.70;43.50;;;5.90;99.90;;;;;;636265;226;26599;-89
2021/12/10 10:36:11;;;;;;;84.27;43.40;;;5.90;99.90;;;;;;626377;226;26820;-87
2021/12/10 10:38:36;;;;;;;91.93;44.67;;;5.90;99.90;;;;;;623673;228;26846;-88
2021/12/10 10:41:04;;;;;;;77.63;42.43;;;6.00;99.90;;;;;;624655;228;26604;-90
2021/12/10 10:43:31;;;;;;;79.80;44.20;;;6.10;99.90;;;;;;625322;227;27265;-90
2021/12/10 10:45:58;;;;;;;82.63;43.13;;;6.10;99.90;;;;;;625015;230;26555;-88
2021/12/10 10:48:26;;;;;;;82.80;42.20;;;6.00;99.90;;;;;;624848;230;26551;-88
2021/12/10 10:50:54;;;;;;;87.73;44.10;;;6.10;99.90;;;;;;624702;230;26812;-89
2021/12/10 10:53:21;;;;;;;83.23;43.93;;;6.10;99.90;;;;;;624411;227;26602;-89
2021/12/10 10:56:01;;;;;;;78.27;41.77;;;6.10;99.90;;;;;;624461;230;27259;-78
2021/12/10 10:58:30;;;;;;;85.43;44.97;;;6.10;99.90;;;;;;624098;230;26624;-79
2021/12/10 11:01:08;;;;;;;94.90;45.10;;;5.70;99.90;;;;;;623774;230;26552;-78
2021/12/10 11:03:36;;;;;;;88.87;44.77;;;5.70;99.90;;;;;;623702;230;26763;-80
2021/12/10 11:05:59;;;;;;;85.67;44.83;;;5.60;99.90;;;;;;631304;227;26653;-79
2021/12/10 11:08:28;;;;;;;109.00;51.27;;;5.60;99.90;;;;;;635288;226;26593;-81
2021/12/10 11:10:58;;;;;;;106.03;46.37;;;5.80;99.90;;;;;;636913;226;26845;-85
2021/12/10 11:13:25;;;;;;;97.67;47.27;;;5.90;99.90;;;;;;629742;226;26607;-86
2021/12/10 11:15:53;;;;;;;94.63;45.07;;;6.00;99.90;;;;;;624135;230;26756;-87
2021/12/10 11:18:21;;;;;;;88.57;45.00;;;5.90;99.90;;;;;;624711;227;26613;-86
2021/12/10 11:20:48;;;;;;;89.97;44.93;;;5.90;99.90;;;;;;634383;226;27211;-83
2021/12/10 11:23:16;;;;;;;89.07;44.57;;;5.80;99.90;;;;;;629824;227;26556;-86
2021/12/10 11:25:43;;;;;;;87.00;44.43;;;5.70;99.90;;;;;;624087;230;26777;-87
2021/12/10 11:28:10;;;;;;;81.00;42.37;;;5.70;99.90;;;;;;624030;230;26609;-89
2021/12/10 11:30:42;;;;;;;77.70;40.80;;;5.70;99.90;;;;;;623979;230;26600;-88
2021/12/10 11:33:09;;;;;;;79.17;40.37;;;5.90;99.90;;;;;;624020;230;26574;-86
2021/12/10 11:35:41;;;;;;;80.20;39.87;;;6.00;99.90;;;;;;624074;230;26870;-86
2021/12/10 11:38:15;;;;;;;82.40;40.43;;;6.00;99.90;;;;;;624019;230;26571;-86
2021/12/10 11:40:48;;;;;;;79.37;41.43;;;5.90;99.90;;;;;;625470;227;26607;-85
2021/12/10 11:43:44;;;;;;;79.00;41.20;;;6.00;99.90;;;;;;627242;226;26600;-86
2021/12/10 11:49:15;;;;;;;75.13;38.30;;;6.10;99.90;;;;;;608906;231;26647;-85
2021/12/10 11:51:44;;;;;;;76.23;39.40;;;6.10;99.90;;;;;;648327;221;26580;-86
2021/12/10 11:54:18;;;;;;;74.93;37.30;;;6.10;99.90;;;;;;650295;219;26519;-86
2021/12/10 11:56:48;;;;;;;72.67;38.67;;;6.30;99.90;;;;;;649682;221;26505;-85
2021/12/10 11:59:17;;;;;;;71.90;39.03;;;6.40;99.90;;;;;;649181;221;26597;-79
2021/12/10 12:02:00;;;;;;;77.43;40.93;;;6.30;99.90;;;;;;649355;221;26767;-78
2021/12/10 12:04:27;;;;;;;76.97;40.43;;;6.30;99.90;;;;;;644752;223;26543;-78
2021/12/10 12:07:06;;;;;;;75.60;38.80;;;6.20;99.90;;;;;;641319;222;26726;-79
2021/12/10 12:09:34;;;;;;;73.90;39.73;;;6.20;99.90;;;;;;643037;222;26544;-79
2021/12/10 12:12:08;;;;;;;80.00;39.37;;;6.10;99.90;;;;;;637936;225;26542;-78
2021/12/10 12:14:35;;;;;;;74.80;39.67;;;6.10;99.90;;;;;;638080;225;26469;-78
2021/12/10 12:17:04;;;;;;;75.73;39.77;;;6.20;99.90;;;;;;643341;222;26571;-78
2021/12/10 12:19:31;;;;;;;79.17;40.13;;;6.00;99.90;;;;;;647951;222;26557;-78
2021/12/10 12:22:37;;;;;;;75.20;38.97;;;6.00;99.90;;;;;;648580;221;26513;-77
2021/12/10 12:27:21;;;;;;;71.80;37.90;;;6.00;99.90;;;;;;646878;221;26551;-78
2021/12/10 12:29:48;;;;;;;76.77;37.83;;;6.00;99.90;;;;;;637450;225;26605;-78
2021/12/10 12:32:19;;;;;;;73.33;38.97;;;6.00;99.90;;;;;;637343;226;26574;-79
2021/12/10 12:34:46;;;;;;;76.37;38.97;;;6.20;99.90;;;;;;637398;226;26561;-78
2021/12/10 12:37:13;;;;;;;70.80;37.30;;;5.90;99.90;;;;;;637459;226;26591;-79
2021/12/10 12:39:46;;;;;;;74.13;36.70;;;5.70;99.90;;;;;;637193;226;26581;-78
2021/12/10 12:42:23;;;;;;;70.00;35.67;;;5.70;99.90;;;;;;637399;226;26525;-78
2021/12/10 12:44:50;;;;;;;71.33;35.73;;;5.50;99.90;;;;;;637266;226;26600;-78
2021/12/10 12:47:23;;;;;;;67.90;36.13;;;5.50;99.90;;;;;;637508;222;26594;-78
2021/12/10 12:49:52;;;;;;;81.53;38.47;;;5.10;99.90;;;;;;637192;222;26815;-78
2021/12/10 12:52:21;;;;;;;78.23;38.07;;;5.00;99.90;;;;;;646977;222;26525;-78
2021/12/10 12:55:21;;;;;;;70.33;36.60;;;4.90;99.90;;;;;;647195;222;26518;-78